createdAt,value
2019-03-27T00:01:10.927Z,39.43
2019-03-27T00:03:51.920Z,33.37
2019-03-27T00:06:33.173Z,44.23
2019-03-27T00:09:14.116Z,49.27
2019-03-27T00:11:55.103Z,48.07
2019-03-27T00:14:36.131Z,44.47
2019-03-27T00:17:16.576Z,48.70
2019-03-27T00:19:57.648Z,48.63
2019-03-27T00:22:38.619Z,40.83
2019-03-27T00:25:19.897Z,42.83
2019-03-27T00:28:00.533Z,42.77
2019-03-27T00:30:41.504Z,47.57
2019-03-27T00:33:22.784Z,51.83
2019-03-27T00:36:03.388Z,65.57
2019-03-27T00:38:44.379Z,69.57
2019-03-27T00:41:25.018Z,57.97
2019-03-27T00:44:06.322Z,60.27
2019-03-27T00:46:47.531Z,64.63
2019-03-27T00:49:28.986Z,56.97
2019-03-27T00:52:09.783Z,61.73
2019-03-27T00:54:49.690Z,69.57
2019-03-27T00:57:30.086Z,65.90
2019-03-27T01:00:10.613Z,69.20
2019-03-27T01:02:51.043Z,62.87
2019-03-27T01:05:31.320Z,70.87
2019-03-27T01:08:11.699Z,70.43
2019-03-27T01:10:52.079Z,60.23
2019-03-27T01:13:32.691Z,53.00
2019-03-27T01:16:12.762Z,46.20
2019-03-27T01:18:52.828Z,56.33
2019-03-27T01:21:33.127Z,57.47
2019-03-27T01:24:13.640Z,56.10
2019-03-27T01:26:54.548Z,53.90
2019-03-27T01:29:35.210Z,55.30
2019-03-27T01:32:16.295Z,60.27
2019-03-27T01:34:57.207Z,57.37
2019-03-27T01:37:38.101Z,64.77
2019-03-27T01:40:18.981Z,57.53
2019-03-27T01:42:59.769Z,60.87
2019-03-27T01:45:52.493Z,64.67
2019-03-27T01:48:22.468Z,64.90
2019-03-27T01:51:04.260Z,63.83
2019-03-27T01:53:45.296Z,57.03
2019-03-27T01:56:25.766Z,56.83
2019-03-27T01:59:06.599Z,55.90
2019-03-27T02:01:47.176Z,60.47
2019-03-27T02:04:27.916Z,56.70
2019-03-27T02:07:08.523Z,55.73
2019-03-27T02:09:49.157Z,58.40
2019-03-27T02:12:30.081Z,50.80
2019-03-27T02:15:11.007Z,50.77
2019-03-27T02:17:51.956Z,48.83
2019-03-27T02:20:32.737Z,52.30
2019-03-27T02:23:13.645Z,58.30
2019-03-27T02:25:54.315Z,50.80
2019-03-27T03:09:49.313Z,43.37
2019-03-27T03:12:30.408Z,42.47
2019-03-27T03:15:11.017Z,33.73
2019-03-27T03:17:51.973Z,39.07
2019-03-27T03:20:33.212Z,35.87
2019-03-27T03:23:14.515Z,38.87
2019-03-27T03:25:54.961Z,36.37
2019-03-27T05:54:42.829Z,37.93
2019-03-27T05:57:25.565Z,35.30
2019-03-27T06:00:08.799Z,34.40
2019-03-27T06:02:53.747Z,49.53
2019-03-27T06:08:21.443Z,50.70
2019-03-27T06:16:33.564Z,39.87
2019-03-27T06:19:18.635Z,40.93
2019-03-27T06:21:59.869Z,61.23
2019-03-27T06:24:45.539Z,42.40
2019-03-27T06:48:25.498Z,56.92
2019-03-27T06:50:53.796Z,51.13
2019-03-27T06:53:33.708Z,45.47
2019-03-27T06:56:14.273Z,46.63
2019-03-27T06:58:55.184Z,58.57
2019-03-27T07:01:36.360Z,60.63
2019-03-27T07:04:16.780Z,39.33
2019-03-27T07:06:57.126Z,42.63
2019-03-27T07:09:37.850Z,40.13
2019-03-27T07:12:21.617Z,35.77
2019-03-27T07:15:02.099Z,39.00
2019-03-27T07:17:42.929Z,44.83
2019-03-27T07:20:23.183Z,40.47
2019-03-27T07:23:04.274Z,40.80
2019-03-27T07:25:44.964Z,44.63
2019-03-27T07:28:25.806Z,48.87
2019-03-27T07:31:06.443Z,38.47
2019-03-27T07:33:46.479Z,41.03
2019-03-27T07:36:27.024Z,44.23
2019-03-27T07:39:11.378Z,37.03
2019-03-27T07:41:48.433Z,38.17
2019-03-27T07:44:29.365Z,32.73
2019-03-27T07:47:09.702Z,40.55
2019-03-27T07:49:50.802Z,39.13
2019-03-27T07:52:37.158Z,37.83
2019-03-27T07:55:19.962Z,41.50
2019-03-27T07:58:00.585Z,36.53
2019-03-27T08:00:42.766Z,40.97
2019-03-27T08:03:23.334Z,48.93
2019-03-27T08:06:03.870Z,33.35
2019-03-27T08:08:45.001Z,33.47
2019-03-27T08:11:26.334Z,36.93
2019-03-27T08:14:08.327Z,38.07
2019-03-27T08:16:50.188Z,44.03
2019-03-27T08:21:46.567Z,46.23
2019-03-27T08:24:27.161Z,41.77
2019-03-27T08:29:22.761Z,46.83
2019-03-27T08:32:03.093Z,46.17
2019-03-27T08:34:43.576Z,45.80
2019-03-27T08:37:24.020Z,36.47
2019-03-27T08:44:36.286Z,43.57
2019-03-27T08:47:16.976Z,45.97
2019-03-27T08:49:57.771Z,41.80
2019-03-27T08:52:38.050Z,42.03
2019-03-27T08:55:21.150Z,41.93
2019-03-27T08:58:02.766Z,44.00
2019-03-27T09:00:43.725Z,45.10
2019-03-27T09:03:24.424Z,49.27
2019-03-27T09:06:05.748Z,42.83
2019-03-27T09:08:46.653Z,45.57
2019-03-27T09:11:29.394Z,53.60
2019-03-27T09:14:09.902Z,42.90
2019-03-27T09:16:50.439Z,49.63
2019-03-27T09:19:36.154Z,54.97
2019-03-27T09:22:11.802Z,48.70
2019-03-27T09:24:52.708Z,46.67
2019-03-27T09:27:33.321Z,51.97
2019-03-27T09:30:14.322Z,47.30
2019-03-27T09:32:54.674Z,46.23
2019-03-27T09:35:35.005Z,41.43
2019-03-27T09:38:15.594Z,35.33
2019-03-27T09:40:56.262Z,32.63
2019-03-27T09:43:36.921Z,38.40
2019-03-27T09:46:21.781Z,34.50
2019-03-27T09:49:05.165Z,30.17
2019-03-27T09:51:46.607Z,32.80
2019-03-27T09:54:26.901Z,41.93
2019-03-27T09:57:07.321Z,33.67
2019-03-27T09:59:47.485Z,35.47
2019-03-27T10:02:28.031Z,40.80
2019-03-27T10:05:08.676Z,31.27
2019-03-27T10:07:48.945Z,34.87
2019-03-27T10:10:29.332Z,32.70
2019-03-27T10:13:10.479Z,38.00
2019-03-27T10:15:51.654Z,35.73
2019-03-27T10:18:33.094Z,30.63
2019-03-27T10:21:15.204Z,37.87
2019-03-27T10:23:55.682Z,34.57
2019-03-27T10:26:42.451Z,36.10
2019-03-27T10:29:23.331Z,33.73
2019-03-27T10:32:04.422Z,31.73
2019-03-27T10:34:45.972Z,37.10
2019-03-27T10:37:26.459Z,42.30
2019-03-27T10:40:06.511Z,34.60
2019-03-27T10:42:47.244Z,37.90
2019-03-27T10:45:27.770Z,38.03
2019-03-27T10:48:08.637Z,37.87
2019-03-27T10:50:49.914Z,33.53
2019-03-27T10:53:30.541Z,32.20
2019-03-27T10:56:12.287Z,36.53
2019-03-27T10:58:53.460Z,33.67
2019-03-27T11:01:34.223Z,32.63
2019-03-27T11:04:15.038Z,37.30
2019-03-27T11:06:55.519Z,28.63
2019-03-27T11:09:35.656Z,38.70
2019-03-27T11:12:15.895Z,39.03
2019-03-27T11:14:57.016Z,31.33
2019-03-27T11:17:38.132Z,27.73
2019-03-27T11:20:30.371Z,34.43
2019-03-27T11:22:59.109Z,35.53
2019-03-27T11:25:39.877Z,37.67
2019-03-27T11:28:20.521Z,35.00
2019-03-27T11:31:01.193Z,33.43
2019-03-27T11:33:41.885Z,38.63
2019-03-27T11:36:22.491Z,39.77
2019-03-27T11:39:03.644Z,31.10
2019-03-27T11:41:44.211Z,34.53
2019-03-27T11:44:24.651Z,69.87
2019-03-27T11:47:04.807Z,108.13
2019-03-27T11:49:45.422Z,144.43
2019-03-27T11:52:29.321Z,94.57
2019-03-27T11:55:06.841Z,95.10
2019-03-27T11:57:46.989Z,64.80
2019-03-27T12:00:28.035Z,59.17
2019-03-27T12:03:08.218Z,52.53
2019-03-27T12:05:48.883Z,49.17
2019-03-27T12:08:29.534Z,63.43
2019-03-27T12:11:09.711Z,68.33
2019-03-27T12:13:50.687Z,55.40
2019-03-27T12:16:31.282Z,54.20
2019-03-27T12:19:12.003Z,58.90
2019-03-27T12:21:54.816Z,48.63
2019-03-27T12:24:34.062Z,54.10
2019-03-27T12:27:15.053Z,45.83
2019-03-27T12:29:56.362Z,44.27
2019-03-27T12:32:37.962Z,39.80
2019-03-27T12:35:19.253Z,44.40
2019-03-27T12:37:59.962Z,40.83
2019-03-27T12:40:41.039Z,41.47
2019-03-27T12:43:22.565Z,52.53
2019-03-27T12:46:03.408Z,49.60
2019-03-27T12:48:44.916Z,50.33
2019-03-27T12:51:26.051Z,48.47
2019-03-27T12:54:06.495Z,44.87
2019-03-27T12:56:47.419Z,48.50
2019-03-27T12:59:29.190Z,45.80
2019-03-27T13:02:10.770Z,40.23
2019-03-27T13:04:52.229Z,40.00
2019-03-27T13:07:33.577Z,41.93
2019-03-27T13:10:14.830Z,40.67
2019-03-27T13:12:56.203Z,101.23
2019-03-27T13:15:37.169Z,71.63
2019-03-27T13:18:17.849Z,66.33
2019-03-27T13:20:58.664Z,60.27
2019-03-27T13:23:40.040Z,54.77
2019-03-27T13:26:21.325Z,58.87
2019-03-27T13:29:04.359Z,59.50
2019-03-27T13:31:44.602Z,56.87
2019-03-27T13:34:25.362Z,59.03
2019-03-27T13:37:05.846Z,87.63
2019-03-27T13:39:46.729Z,99.33
2019-03-27T13:42:27.735Z,117.77
2019-03-27T13:45:08.879Z,132.13
2019-03-27T13:47:49.951Z,203.73
2019-03-27T13:50:31.799Z,125.07
2019-03-27T13:53:12.739Z,163.83
2019-03-27T13:55:54.089Z,126.83
2019-03-27T13:58:35.542Z,108.10
2019-03-27T14:01:17.156Z,125.10
2019-03-27T14:03:58.921Z,125.33
2019-03-27T14:06:40.515Z,133.57
2019-03-27T14:09:22.857Z,156.53
2019-03-27T14:12:04.030Z,159.07
2019-03-27T14:14:50.404Z,149.17
2019-03-27T14:17:27.760Z,151.47
2019-03-27T14:20:10.101Z,146.53
2019-03-27T14:22:51.549Z,138.23
2019-03-27T14:25:33.949Z,152.60
2019-03-27T14:28:16.738Z,156.37
2019-03-27T14:30:58.452Z,156.23
2019-03-27T14:33:40.038Z,156.03
2019-03-27T14:36:25.356Z,149.50
2019-03-27T14:39:06.836Z,151.87
2019-03-27T14:41:49.042Z,151.80
2019-03-27T14:44:30.138Z,155.77
2019-03-27T14:47:13.169Z,160.10
2019-03-27T14:49:57.391Z,146.40
2019-03-27T14:52:38.610Z,150.27
2019-03-27T14:55:21.892Z,157.33
2019-03-27T14:58:07.502Z,147.87
2019-03-27T15:00:49.533Z,138.40
2019-03-27T15:03:31.179Z,126.13
2019-03-27T15:06:14.639Z,111.23
2019-03-27T15:08:55.715Z,109.53
2019-03-27T15:11:42.490Z,105.33
2019-03-27T15:14:28.285Z,108.17
2019-03-27T15:17:09.754Z,102.47
2019-03-27T15:19:51.382Z,99.27
2019-03-27T15:22:32.434Z,102.60
2019-03-27T15:25:13.249Z,97.03
2019-03-27T15:27:54.462Z,101.97
2019-03-27T15:30:37.178Z,131.73
2019-03-27T15:33:17.962Z,109.57
2019-03-27T15:35:58.623Z,113.87
2019-03-27T15:38:39.403Z,125.00
2019-03-27T15:41:20.520Z,112.67
2019-03-27T15:44:01.811Z,132.93
2019-03-27T15:46:42.692Z,114.47
2019-03-27T15:49:24.042Z,133.70
2019-03-27T15:52:05.003Z,178.50
2019-03-27T15:54:45.787Z,148.00
2019-03-27T15:57:26.784Z,135.93
2019-03-27T16:00:07.134Z,151.77
2019-03-27T16:02:49.182Z,151.03
2019-03-27T16:05:29.554Z,151.73
2019-03-27T16:08:10.170Z,159.10
2019-03-27T16:10:51.082Z,146.50
2019-03-27T16:13:32.005Z,165.17
2019-03-27T16:16:13.012Z,139.67
2019-03-27T16:18:53.326Z,139.23
2019-03-27T16:21:37.448Z,143.80
2019-03-27T16:24:15.897Z,138.30
2019-03-27T16:27:04.310Z,135.93
2019-03-27T16:29:38.457Z,120.03
2019-03-27T16:32:19.224Z,119.83
2019-03-27T16:35:00.681Z,114.37
2019-03-27T16:37:41.312Z,115.83
2019-03-27T16:40:22.384Z,113.77
2019-03-27T16:43:03.245Z,111.23
2019-03-27T16:45:43.771Z,107.30
2019-03-27T16:48:25.173Z,100.10
2019-03-27T16:51:05.860Z,104.80
2019-03-27T16:53:47.086Z,98.97
2019-03-27T16:56:28.115Z,90.93
2019-03-27T16:59:09.001Z,93.90
2019-03-27T17:01:49.974Z,81.70
2019-03-27T17:04:30.565Z,79.63
2019-03-27T17:07:10.922Z,74.17
2019-03-27T17:09:52.522Z,69.57
2019-03-27T17:12:34.007Z,68.97
2019-03-27T17:15:15.732Z,68.00
2019-03-27T17:17:56.780Z,65.47
2019-03-27T17:20:38.385Z,64.67
2019-03-27T17:23:19.561Z,65.37
2019-03-27T17:26:01.227Z,66.00
2019-03-27T17:28:41.693Z,66.37
2019-03-27T17:31:22.551Z,64.37
2019-03-27T17:34:03.731Z,59.57
2019-03-27T17:36:44.693Z,61.00
2019-03-27T17:39:25.675Z,58.43
2019-03-27T17:42:06.602Z,60.73
2019-03-27T17:44:47.338Z,59.33
2019-03-27T17:47:28.526Z,57.60
2019-03-27T17:50:09.162Z,57.00
2019-03-27T17:52:49.674Z,58.60
2019-03-27T17:55:30.769Z,62.13
2019-03-27T17:58:11.035Z,62.93
2019-03-27T18:00:52.012Z,62.47
2019-03-27T18:03:32.945Z,59.83
2019-03-27T18:06:13.754Z,61.93
2019-03-27T18:08:54.765Z,63.83
2019-03-27T18:11:36.201Z,63.67
2019-03-27T18:14:17.172Z,60.00
2019-03-27T18:16:57.856Z,58.17
2019-03-27T18:19:38.573Z,60.97
2019-03-27T18:22:19.168Z,70.10
2019-03-27T18:25:00.342Z,75.93
2019-03-27T18:27:40.575Z,63.27
2019-03-27T18:30:21.997Z,70.60
2019-03-27T18:33:02.931Z,72.20
2019-03-27T18:35:43.832Z,69.13
2019-03-27T18:38:24.630Z,66.43
2019-03-27T18:41:05.496Z,67.00
2019-03-27T18:43:46.178Z,67.30
2019-03-27T18:46:27.322Z,69.97
2019-03-27T18:49:10.445Z,65.47
2019-03-27T18:51:51.650Z,68.50
2019-03-27T18:54:32.533Z,65.40
2019-03-27T18:57:13.497Z,60.00
2019-03-27T18:59:54.085Z,62.80
2019-03-27T19:02:35.083Z,62.50
2019-03-27T19:05:16.364Z,62.07
2019-03-27T19:07:57.327Z,63.63
2019-03-27T19:10:38.303Z,58.20
2019-03-27T19:13:19.886Z,59.67
2019-03-27T19:16:01.315Z,58.43
2019-03-27T19:18:42.947Z,57.93
2019-03-27T19:21:23.866Z,62.27
2019-03-27T19:24:14.823Z,81.20
2019-03-27T19:26:46.606Z,99.23
2019-03-27T19:29:27.882Z,67.37
2019-03-27T19:32:09.810Z,61.97
2019-03-27T19:34:51.200Z,60.80
2019-03-27T19:37:32.363Z,66.83
2019-03-27T19:40:13.969Z,67.93
2019-03-27T19:42:55.761Z,60.93
2019-03-27T19:45:37.522Z,62.87
2019-03-27T19:48:18.570Z,65.50
2019-03-27T19:50:59.472Z,72.77
2019-03-27T19:53:41.026Z,77.83
2019-03-27T19:56:22.604Z,65.90
2019-03-27T19:59:03.884Z,67.87
2019-03-27T20:01:44.362Z,74.27
2019-03-27T20:04:25.664Z,109.40
2019-03-27T20:07:06.766Z,127.07
2019-03-27T20:09:47.423Z,131.13
2019-03-27T20:12:28.269Z,102.10
2019-03-27T20:15:12.465Z,89.60
2019-03-27T20:17:50.456Z,115.83
2019-03-27T20:20:31.636Z,196.17
2019-03-27T20:23:15.159Z,207.27
2019-03-27T20:25:54.455Z,127.50
2019-03-27T20:28:35.153Z,115.17
2019-03-27T20:31:15.728Z,118.73
2019-03-27T20:33:57.017Z,129.87
2019-03-27T20:36:38.576Z,120.37
2019-03-27T20:39:19.573Z,122.90
2019-03-27T20:42:00.227Z,131.27
2019-03-27T20:44:41.242Z,123.63
2019-03-27T20:47:21.685Z,106.53
2019-03-27T20:50:02.023Z,110.40
2019-03-27T20:52:42.682Z,103.77
2019-03-27T20:55:30.017Z,105.30
2019-03-27T20:58:05.330Z,110.23
2019-03-27T21:00:46.033Z,107.87
2019-03-27T21:03:26.620Z,107.07
2019-03-27T21:06:08.540Z,106.70
2019-03-27T21:08:49.658Z,97.47
2019-03-27T21:11:30.629Z,94.00
2019-03-27T21:14:11.496Z,103.43
2019-03-27T21:16:52.497Z,112.07
2019-03-27T21:19:35.980Z,124.47
2019-03-27T21:22:14.937Z,120.03
2019-03-27T21:25:07.617Z,109.63
2019-03-27T21:27:36.535Z,103.83
2019-03-27T21:30:17.178Z,95.60
2019-03-27T21:32:57.206Z,95.33
2019-03-27T21:35:37.584Z,92.03
2019-03-27T21:38:18.090Z,84.20
2019-03-27T21:40:58.815Z,98.50
2019-03-27T21:43:39.454Z,103.77
2019-03-27T21:46:20.134Z,106.93
2019-03-27T21:49:00.697Z,110.70
2019-03-27T21:51:41.703Z,115.27
2019-03-27T21:54:22.352Z,118.30
2019-03-27T21:57:02.990Z,129.60
2019-03-27T21:59:43.595Z,119.47
2019-03-27T22:02:24.539Z,118.67
2019-03-27T22:05:05.482Z,142.87
2019-03-27T22:07:46.189Z,128.37
2019-03-27T22:10:27.096Z,114.47
2019-03-27T22:13:08.257Z,133.97
2019-03-27T22:15:49.023Z,130.87
2019-03-27T22:18:29.983Z,113.70
2019-03-27T22:21:10.353Z,100.03
2019-03-27T22:23:51.251Z,104.33
2019-03-27T22:26:31.744Z,112.10
2019-03-27T22:29:12.531Z,127.97
2019-03-27T22:31:53.191Z,121.23
2019-03-27T22:34:33.823Z,124.50
2019-03-27T22:37:14.858Z,119.33
2019-03-27T22:39:55.419Z,124.97
2019-03-27T22:42:36.067Z,126.43
2019-03-27T22:45:16.434Z,126.33
2019-03-27T22:47:56.763Z,125.97
2019-03-27T22:50:37.398Z,120.80
2019-03-27T22:53:18.212Z,119.10
2019-03-27T22:55:59.244Z,106.17
2019-03-27T22:58:40.278Z,109.10
2019-03-27T23:01:20.858Z,119.47
2019-03-27T23:04:00.937Z,113.13
2019-03-27T23:06:41.882Z,110.90
2019-03-27T23:09:22.460Z,122.43
2019-03-27T23:12:03.097Z,110.93
2019-03-27T23:14:44.049Z,111.43
2019-03-27T23:17:24.700Z,114.70
2019-03-27T23:20:05.337Z,108.40
2019-03-27T23:22:46.202Z,102.87
2019-03-27T23:25:27.034Z,164.90
2019-03-27T23:28:08.225Z,120.53
2019-03-27T23:30:49.490Z,117.67
2019-03-27T23:33:29.902Z,134.90
2019-03-27T23:36:11.142Z,128.13
2019-03-27T23:38:52.441Z,126.60
2019-03-27T23:41:33.330Z,125.97
2019-03-27T23:44:14.115Z,122.10
2019-03-27T23:46:54.993Z,115.27
2019-03-27T23:49:35.951Z,119.73
2019-03-27T23:52:17.034Z,127.30
2019-03-27T23:54:58.470Z,141.93
2019-03-27T23:57:39.411Z,133.33
